Terminal Aerodrome Forecast
Issued by NWS

Current Version | Previous Version | Text Only | Print | Product List | Glossary On
Versions: 1 2 3 4 5 6 7 8 9 10 11 12 13 14 15 16 17 18 19 20 21 22 23 24 25 26 27
000
FTUS41 KOKX 261446 AAA
TAFGON
TAF AMD
KGON 261446Z 2615/2712 19011KT P6SM SCT250
     FM261800 19010G18KT P6SM SCT250
     FM262300 22007KT P6SM BKN250
     FM270600 21006KT P6SM OVC100
     FM270800 20005KT 4SM BR OVC015
      TEMPO 2708/2712 1SM BR BKN008=

USA.gov is the U.S. government's official web portal to all federal, state and local government web resources and services.